ムルマンスク の空港の天気 - METARとTAF

ムルマンスク空港 ( ULMM / MMK ) - ロシア ムルマンスク
飛行場実況気象(Metar)
観測時間05/28 13:00 MSK (05/28 10:00 UTC)
風向・風速南東 5m/s
視程10km以上
天気現象
なし
気温17℃
湿度48%
気圧1003hPa
METARULMM 281000Z 14005MPS CAVOK 17/06 Q1003 R13/120070 NOSIG RMK QFE746
過去の天気等 Google飛行場航空写真 Wunderground天気予報

過去48時間のMETAR

飛行場予報(TAF)
発表時間: 5/28 10:50 MSK (5/28 07:50 UTC)
予報対象時間: 28日12時 MSK ~ 29日12時 MSK
風向・風速南東 5m/s 瞬間風速 10m/s
視程10km以上
全天の4割程度の雲 雲底高度 490m
28日12時 MSK ~ 28日19時 MSK に一時的に
風向・風速東南東 7m/s 瞬間風速 14m/s
28日19時 MSK ~ 28日21時 MSK に徐々に
風向・風速東 3m/s 瞬間風速 8m/s
29日2時 MSK ~ 29日4時 MSK に徐々に
風向・風速北北東 3m/s 瞬間風速 8m/s
29日4時 MSK ~ 29日12時 MSK に一時的に
天気現象弱いしゅう雨
全天の8割程度の積乱雲 雲底高度 340m
TAF ULMM 280750Z 2809/2909 13005G10MPS 9999 SCT016
TEMPO 2809/2816 11007G14MPS
BECMG 2816/2818 08003G08MPS
BECMG 2823/2901 03003G08MPS
TEMPO 2901/2909 -SHRA BKN011CB